Terminal Aerodrome Forecast
Issued by NWS Goodland, KS

Home | Current Version | Previous Version | Text Only | Print | Product List | Glossary On
Versions: 1 2 3 4 5 6 7 8 9 10 11 12 13 14
521
FTUS43 KGLD 262328
TAFGLD
TAF
KGLD 262328Z 2700/2724 12015G23KT P6SM SCT250
     FM270200 13012G21KT P6SM VCTS BKN040CB
     FM270500 11010KT P6SM SCT040 BKN100
     FM271000 08008KT P6SM BKN035 WS020/18030KT
     FM271100 03008KT P6SM BKN010
     FM271600 36015G22KT P6SM BKN040=

USA.gov is the U.S. government's official web portal to all federal, state and local government web resources and services.